Aérodrome :
LOGIN :

S'inscrire | Disclaimer

   EN    FR    IT 

 










Légende :    VFR   VFR Marginal   IFR   IFR Intensif   IFR Très Intensif
Visi : 
Plafond : 
>= 8 km
>= 3000ft
5 à 8 km
1000 à 3000 ft
1500m à 5 km
500 à 1000 ft
800 à 1500m
200 à 500 ft
< 800m
< 200 ft
Symboles :   Orages  Brouillard  Fortes neiges  Fortes précipitations  Vent > 20 kt
SIGMETs :   Divers  Orages  Givrage  Turbulence  Onde Orograph.  Cendres Volcan.






- Altitude de l'aérodrome : 32 ft
- Code IATA : LKZ


EGUL - RAF Lakenheath

DERNIER METAR :
  • 130956Z AUTO 22014G19KT 9999 FEW060 SCT180 BKN200 22/02 A3019 RMK AO2 SLP227 T02150022 $

METARs EXPIRÉS :
  • 130856Z AUTO 22012KT 9999 CLR 20/05 A3021 RMK AO2 SLP233 T02020046 57008 $
  • 130756Z AUTO 23005KT 9999 BKN055 18/05 A3021 RMK AO2 SLP233 T01780054 $

TAF TAF EGUL
Valide du 13 à 06h jusqu'au 14 à 12h UTC


130600Z 1306/1412 22006KT 9999 BKN070 BKN200 QNH3018INS
BECMG 1308/1309 22010G15KT 9999 BKN050 BKN200 QNH3010INS
BECMG 1314/1315 25010G15KT 9000 -SHRA BKN030 BKN200 QNH3005INS
BECMG 1319/1320 23010KT 9000 -SHRA BKN015 BKN080 QNH3001INS
BECMG 1401/1402 29007KT 9999 NSW FEW010 BKN025 QNH3002INS TX22/1314Z TN13/1404Z



MET'MAP, la Météo Aéronautique d'un coup d'oeil ! - Copyright ORBIFLY Décembre 2007 - Disclaimer

ORBIFLY MET'MAP TEAM :

Programmation & Développement : Alexandra Zaïnal
Sur une idée originale de : Baudouin d'Aumeries
Assistance à la programmation : Marc-Olivier Méhu
Soutien technique & logistique : Manuel Goepfert

Contact : metmap@orbifly.com




SOURCES & CREDITS :

   NOAA